Terminal Aerodrome Forecast
Issued by NWS

Home | Current Version | Previous Version | Text Only | Print | Product List | Glossary On
Versions: 1 2 3 4 5 6 7 8 9 10 11 12 13 14
000
FTUS45 KRIW 232300
TAFCPR
TAF
KCPR 232328Z 2400/2424 24012KT P6SM SCT060
     FM240400 23015G25KT P6SM SKC
     FM241100 22020G30KT P6SM SCT100
     FM241500 22022G34KT P6SM BKN080=

USA.gov is the U.S. government's official web portal to all federal, state and local government web resources and services.